Time;durP1;ratioP1;P1;durP2;ratioP2;P2;SDS_P1;SDS_P2;PMS_P1;PMS_P2;Temp;Humidity;BMP_temperature;BMP_pressure;BME280_temperature;BME280_humidity;BME280_pressure;Samples;Min_cycle;Max_cycle;Signal;HPM_P1;HPM_P2
2024/01/12 00:01:05;;;;;;;38.63;14.27;;;;;;;-145.18;100.00;46943.63;4986398;28;20122;-68
2024/01/12 00:03:30;;;;;;;30.33;12.80;;;;;;;-145.18;100.00;46941.69;4992055;28;20113;-68
2024/01/12 00:05:56;;;;;;;39.53;11.47;;;;;;;-145.18;100.00;46941.69;4991078;28;20030;-68
2024/01/12 00:08:22;;;;;;;25.70;10.53;;;;;;;-145.18;100.00;46945.59;4992192;28;20117;-69
2024/01/12 00:10:47;;;;;;;34.07;9.80;;;;;;;-145.18;100.00;46945.59;4992753;28;20030;-68
2024/01/12 00:13:12;;;;;;;35.07;11.03;;;;;;;-145.18;100.00;46945.59;4992241;28;20117;-68
2024/01/12 00:15:38;;;;;;;30.13;9.57;;;;;;;-145.18;100.00;46943.63;4992431;28;20089;-68
2024/01/12 00:18:04;;;;;;;34.27;10.17;;;;;;;-145.18;100.00;46943.63;4991689;28;20483;-68
2024/01/12 00:20:29;;;;;;;29.90;11.03;;;;;;;-145.18;100.00;46945.59;4991598;28;20105;-68
2024/01/12 00:22:56;;;;;;;26.07;9.70;;;;;;;-145.18;100.00;46949.50;4992108;28;20054;-69
2024/01/12 00:25:22;;;;;;;19.90;9.32;;;;;;;-145.18;100.00;46947.53;4991187;28;20044;-68
2024/01/12 00:27:47;;;;;;;29.37;10.13;;;;;;;-145.18;100.00;46947.53;4992078;28;20035;-68
2024/01/12 00:30:13;;;;;;;36.07;9.47;;;;;;;-145.18;100.00;46949.50;4992489;28;20326;-68
2024/01/12 00:32:39;;;;;;;33.47;9.40;;;;;;;-145.18;100.00;46955.34;4974581;28;20042;-69
2024/01/12 00:35:05;;;;;;;24.70;9.40;;;;;;;-145.18;100.00;46951.44;4991627;28;20051;-69
2024/01/12 00:37:30;;;;;;;27.63;10.77;;;;;;;-145.18;100.00;46951.44;4991649;28;20057;-68
2024/01/12 00:39:56;;;;;;;43.17;10.97;;;;;;;-145.18;100.00;46951.44;4974327;28;20027;-67
2024/01/12 00:42:21;;;;;;;23.13;9.87;;;;;;;-145.18;100.00;46951.44;4993143;28;20026;-67
2024/01/12 00:44:46;;;;;;;35.40;11.23;;;;;;;-145.18;100.00;46951.44;4994864;28;20080;-68
2024/01/12 00:47:12;;;;;;;34.57;9.73;;;;;;;-145.18;100.00;46953.41;4978160;28;20477;-67
2024/01/12 00:49:37;;;;;;;22.70;8.90;;;;;;;-145.18;100.00;46949.50;4995795;28;20032;-67
2024/01/12 00:52:03;;;;;;;32.67;9.30;;;;;;;-145.18;100.00;46949.50;4976557;28;20549;-67
2024/01/12 00:54:28;;;;;;;27.43;9.37;;;;;;;-145.18;100.00;46951.44;4992615;28;20394;-67
2024/01/12 00:56:54;;;;;;;29.17;9.23;;;;;;;-145.18;100.00;46947.53;4995058;28;20482;-68
2024/01/12 00:59:20;;;;;;;29.07;8.03;;;;;;;-145.18;100.00;46955.34;4995540;28;20135;-67
2024/01/12 01:01:45;;;;;;;28.47;9.70;;;;;;;-145.18;100.00;46951.44;4994837;28;20434;-68
2024/01/12 01:04:11;;;;;;;33.40;8.77;;;;;;;-145.18;100.00;46953.41;4977383;28;20023;-68
2024/01/12 01:06:36;;;;;;;39.57;8.57;;;;;;;-145.18;100.00;46951.44;4995065;28;20018;-67
2024/01/12 01:09:02;;;;;;;22.63;7.90;;;;;;;-145.18;100.00;46951.44;4995366;28;20106;-68
2024/01/12 01:11:27;;;;;;;32.37;9.43;;;;;;;-145.18;100.00;46953.41;4994935;28;20030;-68
2024/01/12 01:13:52;;;;;;;25.03;8.40;;;;;;;-145.18;100.00;46953.41;4994825;28;20026;-68
2024/01/12 01:16:18;;;;;;;27.43;8.27;;;;;;;-145.18;100.00;46955.34;4995263;28;20038;-68
2024/01/12 01:18:43;;;;;;;23.57;9.20;;;;;;;-145.18;100.00;46949.50;4994992;28;20391;-68
2024/01/12 01:21:09;;;;;;;18.63;7.23;;;;;;;-145.18;100.00;46951.44;4994938;28;20045;-67
2024/01/12 01:23:34;;;;;;;24.17;8.60;;;;;;;-145.18;100.00;46949.50;4994779;28;20034;-67
2024/01/12 01:26:00;;;;;;;26.17;8.40;;;;;;;-145.18;100.00;46949.50;4995253;28;20026;-68
2024/01/12 01:28:25;;;;;;;21.07;8.93;;;;;;;-145.18;100.00;46953.41;4995241;28;20041;-67
2024/01/12 01:30:50;;;;;;;23.40;7.73;;;;;;;-145.18;100.00;46945.59;4971549;28;20116;-68
2024/01/12 01:33:16;;;;;;;32.53;9.33;;;;;;;-145.18;100.00;46943.63;4994215;28;20030;-67
2024/01/12 01:35:41;;;;;;;31.67;7.30;;;;;;;-145.18;100.00;46949.50;4994928;28;20058;-67
2024/01/12 01:38:07;;;;;;;28.23;8.47;;;;;;;-145.18;100.00;46949.50;4999652;28;20042;-68
2024/01/12 01:40:32;;;;;;;28.87;7.00;;;;;;;-145.18;100.00;46949.50;4995246;28;20041;-67
2024/01/12 01:43:07;;;;;;;27.90;7.87;;;;;;;-145.18;100.00;46951.44;4994537;28;20129;-68
2024/01/12 01:45:34;;;;;;;29.98;7.50;;;;;;;-145.18;100.00;46945.59;4994509;28;20030;-67
2024/01/12 01:48:00;;;;;;;27.03;7.03;;;;;;;-145.18;100.00;46945.59;4985987;28;20572;-67
2024/01/12 01:50:25;;;;;;;24.80;6.73;;;;;;;-145.18;100.00;46951.44;4990765;28;20279;-67
2024/01/12 01:52:51;;;;;;;31.43;6.43;;;;;;;-145.18;100.00;46941.69;4994560;28;20055;-67
2024/01/12 01:55:17;;;;;;;29.17;7.03;;;;;;;-145.18;100.00;46945.59;4994341;28;20088;-67
2024/01/12 01:57:43;;;;;;;24.13;7.13;;;;;;;-145.18;100.00;46945.59;4993135;28;20030;-67
2024/01/12 02:00:12;;;;;;;28.60;7.50;;;;;;;-145.18;100.00;46947.53;4994227;28;20589;-67
2024/01/12 02:02:38;;;;;;;25.08;6.72;;;;;;;-145.18;100.00;46945.59;4994475;28;20276;-68
2024/01/12 02:05:06;;;;;;;22.60;6.20;;;;;;;-145.18;100.00;46945.59;4993909;28;20022;-67
2024/01/12 02:07:33;;;;;;;29.67;5.80;;;;;;;-145.18;100.00;46943.63;4994180;28;20022;-68
2024/01/12 02:09:59;;;;;;;23.43;5.10;;;;;;;-145.18;100.00;46939.72;4993776;28;20342;-67
2024/01/12 02:12:24;;;;;;;23.60;5.57;;;;;;;-145.18;100.00;46943.63;4976615;28;20335;-67
2024/01/12 02:14:49;;;;;;;19.70;5.40;;;;;;;-145.18;100.00;46937.78;4993924;28;20034;-67
2024/01/12 02:17:15;;;;;;;15.20;4.67;;;;;;;-145.18;100.00;46937.78;4993794;28;20030;-67
2024/01/12 02:19:40;;;;;;;22.93;4.87;;;;;;;-145.18;100.00;46937.78;4993583;28;20085;-67
2024/01/12 02:22:06;;;;;;;23.00;4.83;;;;;;;-145.18;100.00;46937.78;4993997;28;20034;-67
2024/01/12 02:24:31;;;;;;;27.43;5.57;;;;;;;-145.18;100.00;46929.97;4994342;28;20045;-68
2024/01/12 02:26:56;;;;;;;23.50;5.73;;;;;;;-145.18;100.00;46931.91;4989187;28;20502;-68
2024/01/12 02:29:22;;;;;;;15.37;5.00;;;;;;;-145.18;100.00;46928.00;4975776;28;20395;-68
2024/01/12 02:31:48;;;;;;;25.07;4.67;;;;;;;-145.18;100.00;46926.06;4993582;28;20127;-67
2024/01/12 02:34:14;;;;;;;26.20;6.93;;;;;;;-145.18;100.00;46924.09;4972606;28;20070;-67
2024/01/12 02:36:40;;;;;;;21.20;6.07;;;;;;;-145.18;100.00;46920.19;4974467;28;20249;-67
2024/01/12 02:39:05;;;;;;;18.53;3.90;;;;;;;-145.18;100.00;46922.16;4972236;28;20335;-67
2024/01/12 02:41:30;;;;;;;19.60;4.23;;;;;;;-145.18;100.00;46922.16;4974269;28;20034;-68
2024/01/12 02:43:56;;;;;;;23.23;4.10;;;;;;;-145.18;100.00;46922.16;4974252;28;20023;-68
2024/01/12 02:46:21;;;;;;;18.97;4.73;;;;;;;-145.18;100.00;46922.16;4972045;28;20093;-67
2024/01/12 02:48:47;;;;;;;24.67;3.80;;;;;;;-145.18;100.00;46914.34;4973527;28;20030;-67
2024/01/12 02:51:12;;;;;;;25.80;4.03;;;;;;;-145.18;100.00;46916.28;4971313;28;20039;-68
2024/01/12 02:53:37;;;;;;;24.80;4.50;;;;;;;-145.18;100.00;46912.38;4974184;28;20027;-68
2024/01/12 02:56:03;;;;;;;12.57;4.10;;;;;;;-145.18;100.00;46904.56;4972657;28;20037;-69
2024/01/12 02:58:28;;;;;;;23.07;3.73;;;;;;;-145.18;100.00;46904.56;4973255;28;20109;-69
2024/01/12 03:00:54;;;;;;;25.30;3.80;;;;;;;-145.18;100.00;46902.63;4973763;28;20027;-69
2024/01/12 03:03:20;;;;;;;22.90;4.53;;;;;;;-145.18;100.00;46902.63;4973712;28;20050;-69
2024/01/12 03:05:47;;;;;;;24.00;4.37;;;;;;;-145.18;100.00;46898.72;4972537;28;20030;-69
2024/01/12 03:08:14;;;;;;;22.55;4.75;;;;;;;-145.18;100.00;46892.84;4972404;28;20494;-69
2024/01/12 03:10:40;;;;;;;23.87;3.43;;;;;;;-145.18;100.00;46892.84;4972428;28;20081;-69
2024/01/12 03:13:05;;;;;;;15.37;3.80;;;;;;;-145.18;100.00;46888.94;4973335;28;20292;-69
2024/01/12 03:15:30;;;;;;;16.80;3.10;;;;;;;-145.18;100.00;46890.91;4973259;28;20038;-69
2024/01/12 03:17:56;;;;;;;20.10;3.07;;;;;;;-145.18;100.00;46881.13;4972910;28;20035;-69
2024/01/12 03:20:22;;;;;;;21.83;3.23;;;;;;;-145.18;100.00;46885.03;4972453;28;20526;-69
2024/01/12 03:22:47;;;;;;;20.87;3.90;;;;;;;-145.18;100.00;46883.09;4973429;28;20291;-69
2024/01/12 03:25:13;;;;;;;21.50;3.40;;;;;;;-145.18;100.00;46883.09;4973671;28;20464;-69
2024/01/12 03:27:38;;;;;;;18.30;3.17;;;;;;;-145.18;100.00;46877.22;4967165;28;20027;-69
2024/01/12 03:30:04;;;;;;;17.97;3.73;;;;;;;-145.18;100.00;46881.13;4971883;28;20106;-69
2024/01/12 03:32:30;;;;;;;14.83;3.13;;;;;;;-145.18;100.00;46877.22;4973263;28;20576;-69
2024/01/12 03:34:56;;;;;;;15.83;3.70;;;;;;;-145.18;100.00;46875.28;4983966;28;20073;-69
2024/01/12 03:37:22;;;;;;;15.80;3.43;;;;;;;-145.18;100.00;46877.22;4991778;28;20061;-69
2024/01/12 03:39:47;;;;;;;17.27;3.57;;;;;;;-145.18;100.00;46875.28;4991873;28;20625;-69
2024/01/12 03:42:12;;;;;;;19.43;3.40;;;;;;;-145.18;100.00;46879.19;4991766;28;20108;-69
2024/01/12 03:44:39;;;;;;;17.47;3.00;;;;;;;-145.18;100.00;46881.13;4991150;28;20034;-69
2024/01/12 03:47:05;;;;;;;15.43;3.00;;;;;;;-145.18;100.00;46881.13;4991609;28;20042;-69
2024/01/12 03:49:30;;;;;;;22.37;3.60;;;;;;;-145.18;100.00;46883.09;4987838;28;20378;-69
2024/01/12 03:51:57;;;;;;;12.40;2.77;;;;;;;-145.18;100.00;46887.00;4994924;28;20041;-69
2024/01/12 03:54:23;;;;;;;16.20;3.00;;;;;;;-145.18;100.00;46887.00;4996194;28;20391;-69
2024/01/12 03:56:49;;;;;;;15.00;3.23;;;;;;;-145.18;100.00;46883.09;4991909;28;20260;-69
2024/01/12 03:59:14;;;;;;;18.03;3.97;;;;;;;-145.18;100.00;46883.09;4973788;28;20330;-69
2024/01/12 04:01:46;;;;;;;20.93;3.87;;;;;;;-145.18;100.00;46885.03;4991474;28;20034;-69
2024/01/12 04:04:12;;;;;;;15.47;3.17;;;;;;;-145.18;100.00;46883.09;4990527;28;20054;-69
2024/01/12 04:06:40;;;;;;;22.43;5.23;;;;;;;-145.18;100.00;46883.09;4991699;28;20343;-67
2024/01/12 04:09:05;;;;;;;8.33;3.77;;;;;;;-145.18;100.00;46881.13;4991335;28;20363;-67
2024/01/12 04:11:31;;;;;;;24.63;4.27;;;;;;;-145.18;100.00;46885.03;4991331;28;20347;-68
2024/01/12 04:13:56;;;;;;;8.83;3.30;;;;;;;-145.18;100.00;46881.13;4991355;28;20049;-67
2024/01/12 04:16:21;;;;;;;17.67;3.73;;;;;;;-145.18;100.00;46885.03;4991059;28;20037;-67
2024/01/12 04:18:47;;;;;;;14.23;3.33;;;;;;;-145.18;100.00;46885.03;4994537;28;20038;-68
2024/01/12 04:21:12;;;;;;;19.87;3.73;;;;;;;-145.18;100.00;46883.09;4994593;28;20516;-67
2024/01/12 04:23:39;;;;;;;9.17;3.50;;;;;;;-145.18;100.00;46887.00;4994716;28;20505;-67
2024/01/12 04:26:07;;;;;;;18.00;4.30;;;;;;;-145.18;100.00;46885.03;4993421;28;20022;-68
2024/01/12 04:28:33;;;;;;;12.80;3.57;;;;;;;-145.18;100.00;46892.84;4994609;28;20275;-68
2024/01/12 04:31:01;;;;;;;14.60;3.80;;;;;;;-145.18;100.00;46890.91;4993640;28;20264;-68
2024/01/12 04:33:26;;;;;;;11.10;3.10;;;;;;;-145.18;100.00;46887.00;4994526;28;20030;-68
2024/01/12 04:35:51;;;;;;;;;;;;;;;-145.18;100.00;46890.91;4957196;28;1106882;-67
2024/01/12 04:38:17;;;;;;;13.98;3.78;;;;;;;-145.18;100.00;46890.91;4996119;28;20362;-68
2024/01/12 04:40:42;;;;;;;11.40;3.27;;;;;;;-145.18;100.00;46888.94;4995346;28;20069;-67
2024/01/12 04:43:08;;;;;;;19.63;4.10;;;;;;;-145.18;100.00;46892.84;4995853;28;20046;-68
2024/01/12 04:45:33;;;;;;;13.43;3.37;;;;;;;-145.18;100.00;46894.81;4995665;28;20110;-68
2024/01/12 04:47:58;;;;;;;10.03;3.33;;;;;;;-145.18;100.00;46892.84;4995405;28;20034;-67
2024/01/12 04:50:24;;;;;;;20.40;4.20;;;;;;;-145.18;100.00;46896.75;4995378;28;20022;-68
2024/01/12 04:52:51;;;;;;;16.07;3.90;;;;;;;-145.18;100.00;46896.75;4977911;28;20733;-67
2024/01/12 04:55:17;;;;;;;11.40;3.33;;;;;;;-145.18;100.00;46892.84;4995556;28;20034;-68
2024/01/12 04:57:43;;;;;;;14.17;3.40;;;;;;;-145.18;100.00;46900.66;4995166;28;20275;-68
2024/01/12 05:00:08;;;;;;;14.13;3.23;;;;;;;-145.18;100.00;46900.66;4995302;28;20113;-67
2024/01/12 05:02:34;;;;;;;18.20;3.73;;;;;;;-145.18;100.00;46898.72;4995732;28;20077;-68
2024/01/12 05:04:59;;;;;;;19.87;3.90;;;;;;;-145.18;100.00;46898.72;4994779;28;20114;-67
2024/01/12 05:07:24;;;;;;;23.53;3.40;;;;;;;-145.18;100.00;46900.66;4995455;28;20096;-68
2024/01/12 05:09:50;;;;;;;22.87;3.60;;;;;;;-145.18;100.00;46902.63;4993940;28;20391;-68
2024/01/12 05:12:15;;;;;;;12.17;3.50;;;;;;;-145.18;100.00;46902.63;4977207;28;20034;-67
2024/01/12 05:14:41;;;;;;;12.37;3.03;;;;;;;-145.18;100.00;46902.63;4995385;28;20453;-67
2024/01/12 05:17:07;;;;;;;19.90;3.30;;;;;;;-145.18;100.00;46902.63;4994862;28;20557;-69
2024/01/12 05:19:32;;;;;;;12.90;3.07;;;;;;;-145.18;100.00;46904.56;4994774;28;20294;-69
2024/01/12 05:21:58;;;;;;;10.60;3.00;;;;;;;-145.18;100.00;46902.63;4995093;28;20044;-69
2024/01/12 05:24:23;;;;;;;17.30;3.53;;;;;;;-145.18;100.00;46904.56;4993353;28;20041;-70
2024/01/12 05:26:50;;;;;;;17.10;2.97;;;;;;;-145.18;100.00;46906.53;4992837;28;20081;-69
2024/01/12 05:29:16;;;;;;;13.87;3.50;;;;;;;-145.18;100.00;46904.56;4994159;28;20026;-70
2024/01/12 05:31:44;;;;;;;14.00;3.17;;;;;;;-145.18;100.00;46902.63;4994321;28;20830;-69
2024/01/12 05:34:10;;;;;;;9.47;2.73;;;;;;;-145.18;100.00;46910.44;4970811;28;20536;-70
2024/01/12 05:36:35;;;;;;;15.63;3.93;;;;;;;-145.18;100.00;46904.56;4994665;28;20280;-69
2024/01/12 05:39:01;;;;;;;24.73;3.47;;;;;;;-145.18;100.00;46906.53;4976793;28;20041;-69
2024/01/12 05:41:26;;;;;;;13.30;4.53;;;;;;;-145.18;100.00;46908.47;4993122;28;20030;-69
2024/01/12 05:43:52;;;;;;;15.50;3.30;;;;;;;-145.18;100.00;46908.47;4993466;28;20421;-70
2024/01/12 05:46:19;;;;;;;10.97;2.83;;;;;;;-145.18;100.00;46906.53;4994172;28;20034;-70
2024/01/12 05:48:44;;;;;;;13.67;3.33;;;;;;;-145.18;100.00;46908.47;4994083;28;20478;-70
2024/01/12 05:51:15;;;;;;;10.00;3.07;;;;;;;-145.18;100.00;46906.53;4994023;28;20326;-70
2024/01/12 05:53:40;;;;;;;17.03;3.47;;;;;;;-145.18;100.00;46906.53;4993484;28;20026;-70
2024/01/12 05:56:06;;;;;;;14.83;3.40;;;;;;;-145.18;100.00;46906.53;4994154;28;20350;-70
2024/01/12 05:58:31;;;;;;;13.97;3.30;;;;;;;-145.18;100.00;46906.53;4993704;28;20122;-70
2024/01/12 06:00:57;;;;;;;11.37;2.93;;;;;;;-145.18;100.00;46912.38;4994293;28;20046;-70
2024/01/12 06:03:22;;;;;;;17.57;3.27;;;;;;;-145.18;100.00;46906.53;4992942;28;20038;-70
2024/01/12 06:05:50;;;;;;;14.90;3.43;;;;;;;-145.18;100.00;46906.53;4994868;28;20060;-70
2024/01/12 06:08:16;;;;;;;12.43;4.07;;;;;;;-145.18;100.00;46910.44;4998946;28;20055;-69
2024/01/12 06:10:42;;;;;;;21.50;4.03;;;;;;;-145.18;100.00;46914.34;4977505;28;20272;-69
2024/01/12 06:13:07;;;;;;;20.80;4.87;;;;;;;-145.18;100.00;46910.44;4975867;28;20479;-69
2024/01/12 06:15:32;;;;;;;12.03;3.10;;;;;;;-145.18;100.00;46914.34;4993386;28;20322;-69
2024/01/12 06:17:59;;;;;;;14.50;3.20;;;;;;;-145.18;100.00;46906.53;4993805;28;20453;-69
2024/01/12 06:20:25;;;;;;;19.00;3.73;;;;;;;-145.18;100.00;46910.44;4977096;28;20031;-69
2024/01/12 06:22:50;;;;;;;8.83;3.17;;;;;;;-145.18;100.00;46910.44;4994102;28;20629;-69
2024/01/12 06:25:23;;;;;;;9.37;3.40;;;;;;;-145.18;100.00;46904.56;4994212;28;20027;-69
2024/01/12 06:27:49;;;;;;;11.10;4.10;;;;;;;-145.18;100.00;46906.53;4993299;28;20049;-68
2024/01/12 06:30:15;;;;;;;12.37;3.07;;;;;;;-145.18;100.00;46906.53;4993645;28;20272;-67
2024/01/12 06:32:40;;;;;;;13.87;3.17;;;;;;;-145.18;100.00;46910.44;4993870;28;20353;-68
2024/01/12 06:35:11;;;;;;;14.17;3.20;;;;;;;-145.18;100.00;46904.56;4976060;28;20057;-67
2024/01/12 06:37:37;;;;;;;14.43;3.27;;;;;;;-145.18;100.00;46906.53;4993044;28;20450;-67
2024/01/12 06:40:04;;;;;;;12.13;3.85;;;;;;;-145.18;100.00;46906.53;4993101;28;20334;-67
2024/01/12 06:42:30;;;;;;;11.37;3.93;;;;;;;-145.18;100.00;46910.44;4992141;28;20121;-67
2024/01/12 06:44:55;;;;;;;12.90;3.43;;;;;;;-145.18;100.00;46912.38;4997537;28;20688;-68
2024/01/12 06:47:21;;;;;;;16.23;3.43;;;;;;;-145.18;100.00;46910.44;4990760;28;20030;-68
2024/01/12 06:49:46;;;;;;;16.40;4.17;;;;;;;-145.18;100.00;46910.44;4975049;28;20403;-68
2024/01/12 06:52:12;;;;;;;8.93;3.77;;;;;;;-145.18;100.00;46914.34;4991835;28;20079;-67
2024/01/12 06:54:37;;;;;;;13.27;3.73;;;;;;;-145.18;100.00;46908.47;4991469;28;20026;-67
2024/01/12 06:57:03;;;;;;;14.57;3.93;;;;;;;-145.18;100.00;46910.44;4973947;28;20096;-68
2024/01/12 06:59:29;;;;;;;12.03;3.77;;;;;;;-145.18;100.00;46916.28;4991942;28;20127;-68
2024/01/12 07:01:55;;;;;;;10.10;3.77;;;;;;;-145.18;100.00;46914.34;4990587;28;20367;-67
2024/01/12 07:04:20;;;;;;;17.60;4.23;;;;;;;-145.18;100.00;46914.34;4991949;28;20326;-68
2024/01/12 07:06:45;;;;;;;15.10;3.93;;;;;;;-145.18;100.00;46920.19;4990230;28;20502;-67
2024/01/12 07:09:12;;;;;;;18.30;4.63;;;;;;;-145.18;100.00;46918.25;4973974;28;20038;-68
2024/01/12 07:11:45;;;;;;;14.27;4.50;;;;;;;-145.18;100.00;46918.25;4973985;28;20027;-67
2024/01/12 07:14:13;;;;;;;14.87;5.37;;;;;;;-145.18;100.00;46920.19;4991233;28;20756;-68
2024/01/12 07:16:38;;;;;;;13.73;4.60;;;;;;;-145.18;100.00;46918.25;4991047;28;20771;-67
2024/01/12 07:19:04;;;;;;;12.63;5.37;;;;;;;-145.18;100.00;46924.09;4992709;28;20342;-68
2024/01/12 07:21:29;;;;;;;13.73;5.17;;;;;;;-145.18;100.00;46914.34;4992039;28;20026;-67
2024/01/12 07:23:55;;;;;;;13.40;4.80;;;;;;;-145.18;100.00;46918.25;4992854;28;20783;-67
2024/01/12 07:26:20;;;;;;;16.10;4.50;;;;;;;-145.18;100.00;46920.19;4986529;28;20026;-68
2024/01/12 07:28:46;;;;;;;15.63;4.33;;;;;;;-145.18;100.00;46920.19;4991671;28;20112;-67
2024/01/12 07:31:11;;;;;;;17.20;4.13;;;;;;;-145.18;100.00;46924.09;4992088;28;20389;-67
2024/01/12 07:33:37;;;;;;;12.87;4.50;;;;;;;-145.18;100.00;46926.06;4991865;28;20030;-68
2024/01/12 07:36:02;;;;;;;16.37;6.17;;;;;;;-145.18;100.00;46918.25;4992458;28;20030;-68
2024/01/12 07:38:28;;;;;;;20.20;5.53;;;;;;;-145.18;100.00;46922.16;4992462;28;20034;-67
2024/01/12 07:40:53;;;;;;;17.77;5.33;;;;;;;-145.18;100.00;46920.19;4992415;28;20502;-67
2024/01/12 07:43:19;;;;;;;16.70;5.03;;;;;;;-145.18;100.00;46924.09;4992523;28;20104;-67
2024/01/12 07:45:45;;;;;;;17.83;4.77;;;;;;;-145.18;100.00;46922.16;4990413;28;20127;-67
2024/01/12 07:48:10;;;;;;;16.20;5.30;;;;;;;-145.18;100.00;46926.06;4991594;28;20038;-68
2024/01/12 07:50:36;;;;;;;17.07;6.03;;;;;;;-145.18;100.00;46926.06;4974900;28;20296;-68
2024/01/12 07:53:02;;;;;;;14.73;5.57;;;;;;;-145.18;100.00;46918.25;4991637;28;20038;-68
2024/01/12 07:55:27;;;;;;;14.00;6.20;;;;;;;-145.18;100.00;46926.06;4992573;28;20740;-67
2024/01/12 07:57:53;;;;;;;21.03;5.80;;;;;;;-145.18;100.00;46924.09;4992243;28;20049;-67
2024/01/12 08:00:18;;;;;;;12.63;4.90;;;;;;;-145.18;100.00;46926.06;4991970;28;20033;-67
2024/01/12 08:02:44;;;;;;;11.27;4.07;;;;;;;-145.18;100.00;46926.06;4974933;28;20252;-68
2024/01/12 08:05:09;;;;;;;16.50;4.23;;;;;;;-145.18;100.00;46924.09;4991846;28;20048;-68
2024/01/12 08:07:36;;;;;;;18.83;4.50;;;;;;;-145.18;100.00;46928.00;4991955;28;20434;-68
2024/01/12 08:10:01;;;;;;;11.10;4.57;;;;;;;-145.18;100.00;46926.06;4992215;28;20022;-68
2024/01/12 08:12:27;;;;;;;14.50;3.70;;;;;;;-145.18;100.00;46926.06;4992138;28;20333;-68
2024/01/12 08:14:52;;;;;;;17.33;5.87;;;;;;;-145.18;100.00;46924.09;4991042;28;20034;-68
2024/01/12 08:17:18;;;;;;;17.67;5.73;;;;;;;-145.18;100.00;46926.06;4989272;28;20041;-68
2024/01/12 08:19:43;;;;;;;15.67;5.53;;;;;;;-145.18;100.00;46928.00;4992050;28;20035;-68
2024/01/12 08:22:08;;;;;;;18.77;5.30;;;;;;;-145.18;100.00;46926.06;4990731;28;20045;-67
2024/01/12 08:24:34;;;;;;;21.23;6.27;;;;;;;-145.18;100.00;46922.16;4974146;28;20019;-67
2024/01/12 08:26:59;;;;;;;28.90;7.50;;;;;;;-145.18;100.00;46924.09;4994003;28;20089;-67
2024/01/12 08:29:24;;;;;;;17.20;5.60;;;;;;;-145.18;100.00;46922.16;4996328;28;20383;-67
2024/01/12 08:31:51;;;;;;;21.53;5.80;;;;;;;-145.18;100.00;46920.19;4991933;28;20058;-67
2024/01/12 08:34:17;;;;;;;13.83;7.23;;;;;;;-145.18;100.00;46920.19;4987039;28;20058;-67
2024/01/12 08:36:42;;;;;;;17.07;5.77;;;;;;;-145.18;100.00;46922.16;4992071;28;20351;-67
2024/01/12 08:39:07;;;;;;;18.80;5.83;;;;;;;-145.18;100.00;46920.19;4991512;28;20339;-68
2024/01/12 08:41:33;;;;;;;14.03;5.60;;;;;;;-145.18;100.00;46920.19;4991967;28;20030;-67
2024/01/12 08:43:58;;;;;;;22.00;6.07;;;;;;;-145.18;100.00;46918.25;4990892;28;20027;-67
2024/01/12 08:46:24;;;;;;;23.47;6.77;;;;;;;-145.18;100.00;46914.34;4991494;28;20038;-68
2024/01/12 08:48:49;;;;;;;19.83;6.33;;;;;;;-145.18;100.00;46920.19;4991114;28;20044;-67
2024/01/12 08:51:16;;;;;;;15.77;6.07;;;;;;;-145.18;100.00;46914.34;4989986;28;20027;-67
2024/01/12 08:53:41;;;;;;;13.87;6.43;;;;;;;-145.18;100.00;46918.25;4990595;28;20085;-68
2024/01/12 08:56:07;;;;;;;18.33;5.63;;;;;;;-145.18;100.00;46916.28;4991360;28;20315;-68
2024/01/12 08:58:33;;;;;;;16.47;5.90;;;;;;;-145.18;100.00;46912.38;4985806;28;20554;-67
2024/01/12 09:00:59;;;;;;;20.93;7.13;;;;;;;-145.18;100.00;46916.28;4986736;28;20284;-68
2024/01/12 09:03:25;;;;;;;19.90;7.00;;;;;;;-145.18;100.00;46912.38;4989614;28;20049;-67
2024/01/12 09:05:51;;;;;;;21.40;7.73;;;;;;;-145.18;100.00;46914.34;4990367;28;20113;-68
2024/01/12 09:08:16;;;;;;;14.93;7.03;;;;;;;-145.18;100.00;46914.34;4990734;28;20391;-68
2024/01/12 09:10:42;;;;;;;22.17;7.13;;;;;;;-145.18;100.00;46910.44;4991619;28;20113;-67
2024/01/12 09:13:07;;;;;;;16.87;7.40;;;;;;;-145.18;100.00;46910.44;4991378;28;20486;-68
2024/01/12 09:15:33;;;;;;;21.30;8.13;;;;;;;-145.18;100.00;46908.47;4988369;28;20482;-67
2024/01/12 09:17:58;;;;;;;24.30;8.60;;;;;;;-145.18;100.00;46912.38;4990513;28;20053;-68
2024/01/12 09:20:23;;;;;;;15.73;7.97;;;;;;;-145.18;100.00;46906.53;4972426;28;20057;-67
2024/01/12 09:22:49;;;;;;;18.77;8.20;;;;;;;-145.18;100.00;46906.53;4971795;28;20066;-67
2024/01/12 09:25:14;;;;;;;20.03;7.50;;;;;;;-145.18;100.00;46904.56;4990458;28;20054;-67
2024/01/12 09:27:40;;;;;;;19.73;7.20;;;;;;;-145.18;100.00;46908.47;4991149;28;20505;-67
2024/01/12 09:30:06;;;;;;;17.27;6.40;;;;;;;-145.18;100.00;46902.63;4990312;28;20034;-68
2024/01/12 09:32:31;;;;;;;30.10;7.60;;;;;;;-145.18;100.00;46902.63;4972819;28;21293;-68
2024/01/12 09:34:56;;;;;;;17.00;6.57;;;;;;;-145.18;100.00;46896.75;4989339;28;20296;-67
2024/01/12 09:37:22;;;;;;;23.30;6.77;;;;;;;-145.18;100.00;46900.66;4990327;28;20031;-68
2024/01/12 09:39:48;;;;;;;18.90;8.93;;;;;;;-145.18;100.00;46898.72;4989932;28;20351;-69
2024/01/12 09:42:15;;;;;;;27.30;7.70;;;;;;;-145.18;100.00;46902.63;4990111;28;20030;-67
2024/01/12 09:44:46;;;;;;;27.47;6.70;;;;;;;-145.18;100.00;46900.66;4990416;28;20149;-68
2024/01/12 09:47:12;;;;;;;17.60;7.33;;;;;;;-145.18;100.00;46900.66;4990107;28;20267;-68
2024/01/12 09:49:38;;;;;;;21.53;8.30;;;;;;;-145.18;100.00;46900.66;4990101;28;20280;-67
2024/01/12 09:52:07;;;;;;;20.67;7.70;;;;;;;-145.18;100.00;46894.81;4990198;28;20034;-68
2024/01/12 09:54:34;;;;;;;18.63;7.40;;;;;;;-145.18;100.00;46898.72;4990452;28;20815;-67
2024/01/12 09:57:00;;;;;;;15.23;6.70;;;;;;;-145.18;100.00;46896.75;4990371;28;20274;-68
2024/01/12 09:59:27;;;;;;;20.57;7.63;;;;;;;-145.18;100.00;46896.75;4990264;28;20279;-68
2024/01/12 10:01:53;;;;;;;26.07;9.00;;;;;;;-145.18;100.00;46894.81;4989857;28;20264;-67
2024/01/12 10:04:18;;;;;;;20.23;7.93;;;;;;;-145.18;100.00;46896.75;4990018;28;20278;-68
2024/01/12 10:06:44;;;;;;;17.47;7.87;;;;;;;-145.18;100.00;46890.91;4989871;28;20072;-68
2024/01/12 10:09:09;;;;;;;24.33;8.10;;;;;;;-145.18;100.00;46890.91;4990384;28;20129;-67
2024/01/12 10:11:36;;;;;;;17.83;7.50;;;;;;;-145.18;100.00;46892.84;4987621;28;20108;-67
2024/01/12 10:14:01;;;;;;;20.30;8.10;;;;;;;-145.18;100.00;46890.91;4989332;28;20030;-67
2024/01/12 10:16:29;;;;;;;21.97;7.60;;;;;;;-145.18;100.00;46892.84;4991533;28;20255;-67
2024/01/12 10:19:00;;;;;;;18.13;7.00;;;;;;;-145.18;100.00;46892.84;4965962;28;20026;-68
2024/01/12 10:21:26;;;;;;;16.83;7.37;;;;;;;-145.18;100.00;46894.81;4992904;28;20331;-68
2024/01/12 10:24:03;;;;;;;19.53;7.30;;;;;;;-145.18;100.00;46892.84;4993917;28;20287;-68
2024/01/12 10:26:29;;;;;;;16.90;6.60;;;;;;;-145.18;100.00;46894.81;4992443;28;20434;-68
2024/01/12 10:28:54;;;;;;;15.53;7.17;;;;;;;-145.18;100.00;46892.84;4992698;28;20248;-67
2024/01/12 10:31:20;;;;;;;15.50;7.10;;;;;;;-145.18;100.00;46894.81;4992951;28;20030;-68
2024/01/12 10:33:46;;;;;;;19.57;7.40;;;;;;;-145.18;100.00;46896.75;4975267;28;20058;-67
2024/01/12 10:36:17;;;;;;;16.17;6.40;;;;;;;-145.18;100.00;46890.91;4993140;28;20036;-67
2024/01/12 10:38:45;;;;;;;24.03;6.50;;;;;;;-145.18;100.00;46888.94;4992174;28;20276;-67
2024/01/12 10:41:11;;;;;;;20.57;6.30;;;;;;;-145.18;100.00;46892.84;4989887;28;20346;-68
2024/01/12 10:43:38;;;;;;;18.10;5.53;;;;;;;-145.18;100.00;46887.00;4992871;28;20748;-67
2024/01/12 10:46:22;;;;;;;18.17;6.20;;;;;;;-145.18;100.00;46890.91;4990230;28;20343;-67
2024/01/12 10:49:02;;;;;;;17.17;4.50;;;;;;;-145.18;100.00;46883.09;4995546;28;20255;-68
2024/01/12 10:51:32;;;;;;;17.07;5.07;;;;;;;-145.18;100.00;46881.13;4991579;28;20260;-67
2024/01/12 10:54:04;;;;;;;21.50;5.63;;;;;;;-145.18;100.00;46877.22;4992726;28;20256;-68
2024/01/12 10:56:32;;;;;;;17.43;4.50;;;;;;;-145.18;100.00;46879.19;4993515;28;20295;-68